Terminal Aerodrome Forecast
Issued by NWS Pittsburgh, PA

Current Version | Previous Version | Text Only | Print | Product List | Glossary Off
Versions: 1 2 3 4 5 6 7 8 9 10 11 12 13 14 15 16 17 18 19 20 21 22 23 24 25 26 27 28

070
FTUS41 KPBZ 142320
TAFPIT
TAF
KPIT 142320Z 1500/1606 15004KT P6SM SKC
     FM150800 18005KT P6SM SCT080 WS020/23040KT
     FM151400 20012G25KT P6SM SCT050
     FM152100 24015G30KT P6SM -SHRA OVC035
     FM160100 27013G22KT P6SM BKN090=

USA.gov is the U.S. government's official web portal to all federal, state and local government web resources and services.